Terminal Aerodrome Forecast
Issued by NWS Twin Cities, MN

Home | Current Version | Previous Version | Text Only | Print | Product List | Glossary On
Versions: 1 2 3 4 5 6 7 8 9 10 11 12 13 14 15 16 17 18 19 20 21 22 23 24 25 26 27
000
FTUS43 KMPX 200520
TAFMSP
TAF
KMSP 200520Z 2006/2112 14014G23KT P6SM OVC090 WS020/17045KT
     FM200800 16015G23KT 6SM -RA BR VCTS SCT040CB OVC070
      WS020/17050KT
      TEMPO 2008/2012 2SM TSRA BR BKN040CB
     FM201200 18011KT P6SM OVC040
     FM201400 23008KT P6SM BKN030
     FM201800 29010KT P6SM FEW110
     FM210000 VRB03KT P6SM SKC=

USA.gov is the U.S. government's official web portal to all federal, state and local government web resources and services.